Flight Track Log - Related Links

Times and Time Zones

All times are in EDT time to prevent confusion due to time zone crossing. See the ACA301 flight status page for this flight to view local times or setup timezone preferences in your user account.

Time Position Orientation Groundspeed Altitude Reporting Facility
EDT Latitude Longitude Course Direction KTS MPH feet Rate Location/Type
Thu 06:16:25 AM 38.8000 -77.0333 339° North 164 189 2,200  Level Potomac TRACON
Thu 06:17:25 AM 38.7667 -77.0833 229° Southwest 245 282 3,800 2,450 Climbing Potomac TRACON
Thu 06:18:00 AM 39.2073 -77.2246 346° North  Level FlightAware Approximate
Thu 06:18:25 AM 38.7500 -77.1667 256° West 275 316 7,100  Level Potomac TRACON
Thu 06:19:00 AM 39.3018 -77.2713 337° Northwest  Level FlightAware Approximate
Thu 06:19:25 AM 38.7667 -77.2500 284° West 282 325 9,800  Level Potomac TRACON
Thu 06:20:00 AM 39.3946 -77.3242 333° Northwest  Level FlightAware Approximate
Thu 06:20:25 AM 38.8333 -77.3167 322° Northwest 313 360 11,100  Level Potomac TRACON
Thu 06:21:00 AM 39.4874 -77.3770 339° North  Level FlightAware Approximate
Thu 06:21:25 AM 38.9167 -77.3667 335° Northwest 334 384 13,200  Level Potomac TRACON
Thu 06:23:23 AM 39.0911 -77.4369 343° North 357 411 16,900 1,508 Climbing Washington Center
Thu 06:24:24 AM 39.1886 -77.4581 350° North 357 411 17,700 984 Climbing Washington Center
Thu 06:25:25 AM 39.2908 -77.4581 360° North 357 411 18,900 1,492 Climbing Washington Center
Thu 06:27:37 AM 39.5194 -77.4567 360° North 356 410 22,500 1,492 Climbing New York Center
Thu 06:28:38 AM 39.6258 -77.4558 360° North 368 423 23,700 1,190 Climbing New York Center
Thu 06:29:38 AM 39.7344 -77.4528 North 378 435 24,900 1,438 Climbing New York Center
Thu 06:30:39 AM 39.8431 -77.4522 360° North 383 441 26,600 1,488 Climbing New York Center
Thu 06:31:39 AM 39.9475 -77.4486 North 383 441 27,900 1,017 Climbing New York Center
Thu 06:32:37 AM 40.0664 -77.4464 North 383 441 28,600 1,050 Climbing New York Center
Thu 06:33:39 AM 40.1553 -77.4958 337° Northwest 383 441 30,000 700 Climbing New York Center
Thu 06:34:37 AM 40.2553 -77.5353 343° North 383 441 30,000  Level New York Center
Thu 06:35:37 AM 40.3553 -77.5725 344° North 372 428 30,000  Level New York Center
Thu 06:37:22 AM 40.5256 -77.6439 342° North 368 423 30,000  Level Cleveland Center
Thu 06:38:22 AM 40.6225 -77.6833 343° North 368 423 30,000  Level Cleveland Center
Thu 06:39:22 AM 40.7192 -77.7228 343° North 368 423 30,000  Level Cleveland Center
Thu 06:40:22 AM 40.8161 -77.7625 343° North 368 423 30,000  Level Cleveland Center
Thu 06:41:22 AM 40.9153 -77.8022 343° North 368 423 30,000  Level Cleveland Center
Thu 06:42:22 AM 41.0119 -77.8422 343° North 368 423 30,000  Level Cleveland Center
Thu 06:43:22 AM 41.1089 -77.8822 343° North 368 423 30,000  Level Cleveland Center
Thu 06:44:22 AM 41.2078 -77.9225 343° North 368 423 30,000  Level Cleveland Center
Thu 06:45:22 AM 41.3153 -77.9650 343° North 368 423 30,000  Level Cleveland Center
Thu 06:46:22 AM 41.4119 -78.0025 344° North 368 423 30,000  Level Cleveland Center
Thu 06:47:22 AM 41.5086 -78.0431 343° North 368 423 30,000  Level Cleveland Center
Thu 06:48:22 AM 41.6075 -78.0836 343° North 368 423 30,000  Level Cleveland Center
Thu 06:49:22 AM 41.7044 -78.1244 343° North 368 423 30,000  Level Cleveland Center
Thu 06:50:22 AM 41.7992 -78.1653 342° North 368 423 30,000  Level Cleveland Center
Thu 06:51:22 AM 41.9000 -78.2064 343° North 368 423 30,000  Level Cleveland Center
Thu 06:52:22 AM 41.9947 -78.2475 342° North 363 418 30,000  Level Cleveland Center
Thu 06:53:22 AM 42.0936 -78.2914 342° North 368 423 30,000  Level Cleveland Center
Thu 06:54:22 AM 42.1903 -78.3300 344° North 368 423 30,000  Level Cleveland Center
Thu 06:55:22 AM 42.2889 -78.3742 342° North 368 423 30,000  Level Cleveland Center
Thu 06:56:22 AM 42.3836 -78.4131 343° North 368 423 30,000  Level Cleveland Center
Thu 06:57:22 AM 42.4822 -78.4547 343° North 368 423 30,000  Level Cleveland Center
Thu 06:58:22 AM 42.5789 -78.4967 342° North 368 423 30,000 -250 Level Cleveland Center
Thu 06:59:22 AM 42.6733 -78.5358 343° North 368 423 29,500 -750 Descending Cleveland Center
Thu 07:00:22 AM 42.7597 -78.5811 339° North 353 406 28,500 -1,050 Descending Cleveland Center
Thu 07:01:22 AM 42.8258 -78.6667 317° Northwest 329 379 27,400 -950 Descending Cleveland Center
Thu 07:02:22 AM 42.8747 -78.7361 314° West 323 372 26,600 -5,200 Descending Cleveland Center
Thu 07:03:22 AM 42.9553 -78.8158 324° Northwest 323 372 17,000 -1,889 Descending Cleveland Center
Thu 07:04:10 AM 42.9833 -78.8833 300° West 320 368 23,200 2,278 Climbing Toronto Center
Thu 07:05:10 AM 43.0500 -78.9667 318° Northwest 320 368 21,100 -2,050 Descending Toronto Center
Thu 07:06:10 AM 43.1000 -79.0667 304° West 310 357 19,100 -2,000 Descending Toronto Center
Thu 07:07:10 AM 43.1667 -79.1500 318° Northwest 300 345 17,100 -1,900 Descending Toronto Center
Thu 07:08:10 AM 43.2167 -79.2167 316° Northwest 290 334 15,300 -1,900 Descending Toronto Center
Thu 07:09:10 AM 43.2667 -79.3167 304° West 280 322 13,300 -1,900 Descending Toronto Center
Thu 07:10:10 AM 43.3333 -79.3500 340° North 280 322 11,500 -1,600 Descending Toronto Center
Thu 07:11:10 AM 43.4000 -79.4000 331° Northwest 280 322 10,100 -1,250 Descending Toronto Center
Thu 07:12:10 AM 43.4833 -79.4500 336° Northwest 280 322 9,000 -550 Descending Toronto Center
Thu 07:13:10 AM 43.5333 -79.5000 324° Northwest 270 311 9,000 -650 Level Toronto Center
Thu 07:14:10 AM 43.6000 -79.5000 360° North 250 288 7,700 -1,350 Descending Toronto Center
Thu 07:15:10 AM 43.6500 -79.4333 44° Northeast 250 288 6,300 -1,500 Descending Toronto Center
Thu 07:16:10 AM 43.7000 -79.3500 50° Northeast 240 276 4,700 -1,500 Descending Toronto Center
Thu 07:17:10 AM 43.7500 -79.3833 334° Northwest 210 242 3,300 -850 Descending Toronto Center
Thu 07:18:10 AM 43.7500 -79.4500 270° West 200 230 3,000 -300 Descending Toronto Center

Login

Don't have an account? Register now (free) for customized features, flight alerts, and more!